الصفحة الرئيسية
METAR-TAF:

METAR-TAF

مطار :

قاعدة الملك عبد العزيز الجوية

الظهران, السعودية

دائرة عرض: 26-16N, خط طول: 050-09E, ارتفاع: 26 متر

مراقبة الطقس الحالي

تاريخ ووقت الإصدار 1ساعة و 18 دقيقة قبل الساعة 13:00UTC
ريح 11 عقدة من الشمال الشرقي
درجة الحرارة 43°درجة مئوية
الرطوبة 25%
ضغط 993 hPa
الرؤية 10 كم أو أكثر
الغيوم لا تقل 1500 م ولا وجود لمزنة ركامية السحاب الأسود

METAR: OEDR 201300Z 05011KT CAVOK 43/19 Q0993

زمن: 17:18 (14:18 UTC)

توقعات

تاريخ ووقت الإصدار 5ساعات و 18 دقيقة قبل الساعة 09:00UTC
التوقعات صالحة من20 الساعة 12 UTC إلى 21 الساعة 18 UTC
ريح 13 عقدة من الشمال الشرقي
الرؤية: 8000 متر
مؤقت
من 20 الساعة 21 UTC إلى 21 الساعة 06 UTC
ريح 6 عقدة من الشمال/الشمال الغربي
الرؤية: 5000 متر
غشاء
نظرية الاحتمالات 30% :
مؤقت
من 20 الساعة 23 UTC إلى 21 الساعة 03 UTC
الرؤية: 3000 متر

TAF: OEDR 200900Z 2012/2118 05013KT 8000 NSC TEMPO 2021/2106 34006KT 5000 BR PROB30 TEMPO 2023/2103 3000

أرصاد الطقس والتوقعات من أكثر من 4000 مطار (تقارير الطقس للمطار METAR والتنبؤ بالطقس بالمطارTAF).

المحطات المتاحة هي النقط الصفراء والحمراء على الخريطة.

حرك المؤشر فوق النقطة لمعرفة اسم المحطة.

ثم انقر لمعرفة أرصاد وتوقعات الطقس.

لتغيير الخارطة: اضغط على الأزرار الخضراء مع رمز الصليب الأسود للتكبير. على الزر الأخضر مع شرطة للتصغير، أو على الأسهم الخضراء للخرائط المجاورة.


METAR-TAF: